Atlantic Beach, Florida
Current Conditions -  °F | °C
As of 2:52 PM on Monday 26 Jan 2015 (Local Time) from KNRB Reporting Station
Broken Clouds Broken Clouds  
Wind Chill: 14°   Ceiling: 4500
Heat Index: 14°   Visibility: 10mi
Dew Point:   Wind: 13mph
Humidity: 51%   Direction: 290°WNW
Pressure: 29.79"   Gusts: 23mph
Location:  30.33°N, 81.4°W
Report Text: KNRB 261952Z 29011G20KT 10SM BKN045 14/04 A2979 RMK AO2 SLP085 T01390039 $
Loading
Personal Weather Stations






























Interactive Weather Map New forecast layout! Learn more

10-Day Weather Forecast

Advertisements
Track Severe Weather on mobile